sensor_id;sensor_type;location;lat;lon;timestamp;P1;durP1;ratioP1;P2;durP2;ratioP2
3755;SDS011;1893;52.526;13.360;2024-01-30T00:01:37;14.27;;;7.90;;
3755;SDS011;1893;52.526;13.360;2024-01-30T00:04:02;13.00;;;7.60;;
3755;SDS011;1893;52.526;13.360;2024-01-30T00:06:28;7.67;;;5.13;;
3755;SDS011;1893;52.526;13.360;2024-01-30T00:08:54;10.80;;;6.50;;
3755;SDS011;1893;52.526;13.360;2024-01-30T00:11:19;8.13;;;5.50;;
3755;SDS011;1893;52.526;13.360;2024-01-30T00:13:46;8.97;;;5.70;;
3755;SDS011;1893;52.526;13.360;2024-01-30T00:16:20;10.50;;;6.80;;
3755;SDS011;1893;52.526;13.360;2024-01-30T00:18:47;13.80;;;6.43;;
3755;SDS011;1893;52.526;13.360;2024-01-30T00:21:13;8.47;;;5.83;;
3755;SDS011;1893;52.526;13.360;2024-01-30T00:23:39;11.70;;;6.40;;
3755;SDS011;1893;52.526;13.360;2024-01-30T00:26:04;11.57;;;5.70;;
3755;SDS011;1893;52.526;13.360;2024-01-30T00:28:32;11.83;;;6.13;;
3755;SDS011;1893;52.526;13.360;2024-01-30T00:30:58;10.47;;;6.20;;
3755;SDS011;1893;52.526;13.360;2024-01-30T00:33:23;11.30;;;6.57;;
3755;SDS011;1893;52.526;13.360;2024-01-30T00:35:49;10.40;;;5.90;;
3755;SDS011;1893;52.526;13.360;2024-01-30T00:38:14;11.37;;;6.70;;
3755;SDS011;1893;52.526;13.360;2024-01-30T00:40:40;9.10;;;6.23;;
3755;SDS011;1893;52.526;13.360;2024-01-30T00:43:06;9.97;;;5.80;;
3755;SDS011;1893;52.526;13.360;2024-01-30T00:45:32;7.80;;;5.77;;
3755;SDS011;1893;52.526;13.360;2024-01-30T00:47:57;10.13;;;6.97;;
3755;SDS011;1893;52.526;13.360;2024-01-30T00:50:23;10.30;;;5.70;;
3755;SDS011;1893;52.526;13.360;2024-01-30T00:52:48;10.60;;;6.10;;
3755;SDS011;1893;52.526;13.360;2024-01-30T00:55:14;10.60;;;6.30;;
3755;SDS011;1893;52.526;13.360;2024-01-30T00:57:40;11.53;;;6.17;;
3755;SDS011;1893;52.526;13.360;2024-01-30T01:00:05;9.80;;;6.70;;
3755;SDS011;1893;52.526;13.360;2024-01-30T01:02:34;11.13;;;6.67;;
3755;SDS011;1893;52.526;13.360;2024-01-30T01:04:59;11.10;;;5.83;;
3755;SDS011;1893;52.526;13.360;2024-01-30T01:07:25;10.97;;;6.33;;
3755;SDS011;1893;52.526;13.360;2024-01-30T01:09:51;10.80;;;6.67;;
3755;SDS011;1893;52.526;13.360;2024-01-30T01:12:16;9.17;;;6.37;;
3755;SDS011;1893;52.526;13.360;2024-01-30T01:14:42;14.00;;;7.23;;
3755;SDS011;1893;52.526;13.360;2024-01-30T01:17:08;8.83;;;5.70;;
3755;SDS011;1893;52.526;13.360;2024-01-30T01:19:33;12.50;;;6.80;;
3755;SDS011;1893;52.526;13.360;2024-01-30T01:21:59;9.80;;;6.00;;
3755;SDS011;1893;52.526;13.360;2024-01-30T01:24:25;12.27;;;6.13;;
3755;SDS011;1893;52.526;13.360;2024-01-30T01:26:50;9.50;;;5.03;;
3755;SDS011;1893;52.526;13.360;2024-01-30T01:29:16;11.90;;;7.20;;
3755;SDS011;1893;52.526;13.360;2024-01-30T01:31:41;10.87;;;6.20;;
3755;SDS011;1893;52.526;13.360;2024-01-30T01:34:11;12.20;;;6.50;;
3755;SDS011;1893;52.526;13.360;2024-01-30T01:36:37;10.07;;;6.47;;
3755;SDS011;1893;52.526;13.360;2024-01-30T01:39:02;11.07;;;6.50;;
3755;SDS011;1893;52.526;13.360;2024-01-30T01:41:32;10.80;;;6.67;;
3755;SDS011;1893;52.526;13.360;2024-01-30T01:43:58;10.50;;;6.30;;
3755;SDS011;1893;52.526;13.360;2024-01-30T01:46:26;10.40;;;6.60;;
3755;SDS011;1893;52.526;13.360;2024-01-30T01:48:52;12.73;;;5.63;;
3755;SDS011;1893;52.526;13.360;2024-01-30T01:51:19;13.03;;;6.00;;
3755;SDS011;1893;52.526;13.360;2024-01-30T01:53:45;13.27;;;6.80;;
3755;SDS011;1893;52.526;13.360;2024-01-30T01:56:10;10.90;;;7.10;;
3755;SDS011;1893;52.526;13.360;2024-01-30T01:58:36;10.13;;;6.37;;
3755;SDS011;1893;52.526;13.360;2024-01-30T02:01:03;8.47;;;6.10;;
3755;SDS011;1893;52.526;13.360;2024-01-30T02:03:30;14.07;;;6.73;;
3755;SDS011;1893;52.526;13.360;2024-01-30T02:05:55;11.37;;;6.67;;
3755;SDS011;1893;52.526;13.360;2024-01-30T02:08:22;10.33;;;6.70;;
3755;SDS011;1893;52.526;13.360;2024-01-30T02:10:49;11.17;;;6.50;;
3755;SDS011;1893;52.526;13.360;2024-01-30T02:13:14;13.13;;;6.27;;
3755;SDS011;1893;52.526;13.360;2024-01-30T02:15:40;15.17;;;6.93;;
3755;SDS011;1893;52.526;13.360;2024-01-30T02:18:05;12.40;;;7.00;;
3755;SDS011;1893;52.526;13.360;2024-01-30T02:20:31;14.97;;;7.40;;
3755;SDS011;1893;52.526;13.360;2024-01-30T02:23:00;12.47;;;7.00;;
3755;SDS011;1893;52.526;13.360;2024-01-30T02:25:33;14.63;;;6.83;;
3755;SDS011;1893;52.526;13.360;2024-01-30T02:28:09;9.47;;;6.70;;
3755;SDS011;1893;52.526;13.360;2024-01-30T02:30:35;10.00;;;5.73;;
3755;SDS011;1893;52.526;13.360;2024-01-30T02:33:01;10.13;;;6.30;;
3755;SDS011;1893;52.526;13.360;2024-01-30T02:35:27;11.97;;;7.50;;
3755;SDS011;1893;52.526;13.360;2024-01-30T02:37:52;10.10;;;6.73;;
3755;SDS011;1893;52.526;13.360;2024-01-30T02:40:18;13.00;;;6.67;;
3755;SDS011;1893;52.526;13.360;2024-01-30T02:42:43;8.07;;;6.43;;
3755;SDS011;1893;52.526;13.360;2024-01-30T02:45:09;12.50;;;6.40;;
3755;SDS011;1893;52.526;13.360;2024-01-30T02:47:35;10.20;;;6.00;;
3755;SDS011;1893;52.526;13.360;2024-01-30T02:50:01;12.37;;;7.93;;
3755;SDS011;1893;52.526;13.360;2024-01-30T02:52:27;13.83;;;6.23;;
3755;SDS011;1893;52.526;13.360;2024-01-30T02:54:52;10.37;;;6.63;;
3755;SDS011;1893;52.526;13.360;2024-01-30T02:57:18;12.70;;;6.93;;
3755;SDS011;1893;52.526;13.360;2024-01-30T02:59:43;12.37;;;7.03;;
3755;SDS011;1893;52.526;13.360;2024-01-30T03:02:09;12.50;;;7.27;;
3755;SDS011;1893;52.526;13.360;2024-01-30T03:04:34;9.63;;;6.80;;
3755;SDS011;1893;52.526;13.360;2024-01-30T03:07:00;9.20;;;6.70;;
3755;SDS011;1893;52.526;13.360;2024-01-30T03:09:26;10.80;;;7.50;;
3755;SDS011;1893;52.526;13.360;2024-01-30T03:11:51;15.23;;;7.40;;
3755;SDS011;1893;52.526;13.360;2024-01-30T03:14:17;13.60;;;7.60;;
3755;SDS011;1893;52.526;13.360;2024-01-30T03:16:42;15.10;;;7.30;;
3755;SDS011;1893;52.526;13.360;2024-01-30T03:19:08;11.73;;;6.80;;
3755;SDS011;1893;52.526;13.360;2024-01-30T03:21:34;14.47;;;8.03;;
3755;SDS011;1893;52.526;13.360;2024-01-30T03:24:00;10.90;;;6.80;;
3755;SDS011;1893;52.526;13.360;2024-01-30T03:26:25;11.10;;;7.67;;
3755;SDS011;1893;52.526;13.360;2024-01-30T03:28:51;13.73;;;6.90;;
3755;SDS011;1893;52.526;13.360;2024-01-30T03:31:17;14.83;;;7.07;;
3755;SDS011;1893;52.526;13.360;2024-01-30T03:37:04;14.60;;;8.03;;
3755;SDS011;1893;52.526;13.360;2024-01-30T03:39:30;11.33;;;6.60;;
3755;SDS011;1893;52.526;13.360;2024-01-30T03:41:55;15.80;;;7.77;;
3755;SDS011;1893;52.526;13.360;2024-01-30T03:44:21;13.20;;;7.30;;
3755;SDS011;1893;52.526;13.360;2024-01-30T03:46:47;14.80;;;6.90;;
3755;SDS011;1893;52.526;13.360;2024-01-30T03:49:12;12.53;;;7.37;;
3755;SDS011;1893;52.526;13.360;2024-01-30T03:51:38;9.43;;;6.00;;
3755;SDS011;1893;52.526;13.360;2024-01-30T03:54:04;10.40;;;6.13;;
3755;SDS011;1893;52.526;13.360;2024-01-30T03:56:29;15.33;;;6.97;;
3755;SDS011;1893;52.526;13.360;2024-01-30T03:58:55;10.23;;;6.37;;
3755;SDS011;1893;52.526;13.360;2024-01-30T04:01:21;16.30;;;7.23;;
3755;SDS011;1893;52.526;13.360;2024-01-30T04:03:47;11.93;;;6.53;;
3755;SDS011;1893;52.526;13.360;2024-01-30T04:06:13;10.23;;;7.30;;
3755;SDS011;1893;52.526;13.360;2024-01-30T04:08:38;12.60;;;7.53;;
3755;SDS011;1893;52.526;13.360;2024-01-30T04:11:04;11.77;;;7.13;;
3755;SDS011;1893;52.526;13.360;2024-01-30T04:13:33;12.43;;;7.67;;
3755;SDS011;1893;52.526;13.360;2024-01-30T04:16:02;14.43;;;7.37;;
3755;SDS011;1893;52.526;13.360;2024-01-30T04:18:28;13.20;;;7.70;;
3755;SDS011;1893;52.526;13.360;2024-01-30T04:20:54;9.60;;;6.70;;
3755;SDS011;1893;52.526;13.360;2024-01-30T04:23:20;10.40;;;6.90;;
3755;SDS011;1893;52.526;13.360;2024-01-30T04:25:45;14.27;;;7.37;;
3755;SDS011;1893;52.526;13.360;2024-01-30T04:28:11;11.17;;;7.20;;
3755;SDS011;1893;52.526;13.360;2024-01-30T04:30:37;14.40;;;7.63;;
3755;SDS011;1893;52.526;13.360;2024-01-30T04:33:03;16.10;;;8.13;;
3755;SDS011;1893;52.526;13.360;2024-01-30T04:35:29;10.30;;;6.83;;
3755;SDS011;1893;52.526;13.360;2024-01-30T04:37:55;10.53;;;7.10;;
3755;SDS011;1893;52.526;13.360;2024-01-30T04:40:20;10.50;;;6.70;;
3755;SDS011;1893;52.526;13.360;2024-01-30T04:42:46;9.93;;;6.60;;
3755;SDS011;1893;52.526;13.360;2024-01-30T04:45:12;10.07;;;7.00;;
3755;SDS011;1893;52.526;13.360;2024-01-30T04:47:37;16.40;;;7.90;;
3755;SDS011;1893;52.526;13.360;2024-01-30T04:50:04;10.67;;;6.80;;
3755;SDS011;1893;52.526;13.360;2024-01-30T04:52:31;12.50;;;7.50;;
3755;SDS011;1893;52.526;13.360;2024-01-30T04:54:57;9.27;;;6.63;;
3755;SDS011;1893;52.526;13.360;2024-01-30T04:57:23;9.43;;;6.70;;
3755;SDS011;1893;52.526;13.360;2024-01-30T04:59:48;10.57;;;7.50;;
3755;SDS011;1893;52.526;13.360;2024-01-30T05:02:14;15.73;;;7.27;;
3755;SDS011;1893;52.526;13.360;2024-01-30T05:04:40;12.83;;;6.33;;
3755;SDS011;1893;52.526;13.360;2024-01-30T05:07:06;10.10;;;7.20;;
3755;SDS011;1893;52.526;13.360;2024-01-30T05:09:32;11.17;;;7.77;;
3755;SDS011;1893;52.526;13.360;2024-01-30T05:11:57;10.63;;;6.90;;
3755;SDS011;1893;52.526;13.360;2024-01-30T05:14:23;9.37;;;6.57;;
3755;SDS011;1893;52.526;13.360;2024-01-30T05:16:49;13.80;;;6.87;;
3755;SDS011;1893;52.526;13.360;2024-01-30T05:19:14;14.90;;;6.87;;
3755;SDS011;1893;52.526;13.360;2024-01-30T05:21:40;10.50;;;7.50;;
3755;SDS011;1893;52.526;13.360;2024-01-30T05:24:06;10.00;;;7.03;;
3755;SDS011;1893;52.526;13.360;2024-01-30T05:26:34;16.70;;;7.70;;
3755;SDS011;1893;52.526;13.360;2024-01-30T05:29:00;11.60;;;6.53;;
3755;SDS011;1893;52.526;13.360;2024-01-30T05:31:26;15.70;;;6.90;;
3755;SDS011;1893;52.526;13.360;2024-01-30T05:33:52;11.37;;;7.07;;
3755;SDS011;1893;52.526;13.360;2024-01-30T05:36:17;16.67;;;8.07;;
3755;SDS011;1893;52.526;13.360;2024-01-30T05:38:43;9.70;;;6.83;;
3755;SDS011;1893;52.526;13.360;2024-01-30T05:41:08;8.53;;;6.43;;
3755;SDS011;1893;52.526;13.360;2024-01-30T05:43:34;12.87;;;6.67;;
3755;SDS011;1893;52.526;13.360;2024-01-30T05:46:00;11.73;;;6.93;;
3755;SDS011;1893;52.526;13.360;2024-01-30T05:48:25;13.07;;;6.60;;
3755;SDS011;1893;52.526;13.360;2024-01-30T05:50:51;13.37;;;7.10;;
3755;SDS011;1893;52.526;13.360;2024-01-30T05:53:17;13.90;;;6.73;;
3755;SDS011;1893;52.526;13.360;2024-01-30T05:55:42;13.60;;;7.30;;
3755;SDS011;1893;52.526;13.360;2024-01-30T05:58:08;13.97;;;7.93;;
3755;SDS011;1893;52.526;13.360;2024-01-30T06:00:33;12.20;;;7.33;;
3755;SDS011;1893;52.526;13.360;2024-01-30T06:02:59;9.50;;;6.50;;
3755;SDS011;1893;52.526;13.360;2024-01-30T06:05:24;11.20;;;6.60;;
3755;SDS011;1893;52.526;13.360;2024-01-30T06:07:56;13.87;;;7.07;;
3755;SDS011;1893;52.526;13.360;2024-01-30T06:10:21;15.80;;;7.40;;
3755;SDS011;1893;52.526;13.360;2024-01-30T06:12:47;14.07;;;7.30;;
3755;SDS011;1893;52.526;13.360;2024-01-30T06:15:13;12.20;;;6.90;;
3755;SDS011;1893;52.526;13.360;2024-01-30T06:17:39;13.77;;;8.33;;
3755;SDS011;1893;52.526;13.360;2024-01-30T06:20:05;14.10;;;7.50;;
3755;SDS011;1893;52.526;13.360;2024-01-30T06:22:31;14.20;;;7.13;;
3755;SDS011;1893;52.526;13.360;2024-01-30T06:24:57;15.90;;;8.03;;
3755;SDS011;1893;52.526;13.360;2024-01-30T06:27:22;15.30;;;6.90;;
3755;SDS011;1893;52.526;13.360;2024-01-30T06:29:48;10.83;;;7.43;;
3755;SDS011;1893;52.526;13.360;2024-01-30T06:32:13;13.80;;;8.13;;
3755;SDS011;1893;52.526;13.360;2024-01-30T06:34:40;16.23;;;8.23;;
3755;SDS011;1893;52.526;13.360;2024-01-30T06:37:06;14.63;;;8.33;;
3755;SDS011;1893;52.526;13.360;2024-01-30T06:39:32;16.87;;;8.53;;
3755;SDS011;1893;52.526;13.360;2024-01-30T06:41:57;10.73;;;6.13;;
3755;SDS011;1893;52.526;13.360;2024-01-30T06:44:23;15.43;;;7.60;;
3755;SDS011;1893;52.526;13.360;2024-01-30T06:46:49;14.20;;;8.03;;
3755;SDS011;1893;52.526;13.360;2024-01-30T06:49:14;14.63;;;7.93;;
3755;SDS011;1893;52.526;13.360;2024-01-30T06:51:40;16.50;;;8.03;;
3755;SDS011;1893;52.526;13.360;2024-01-30T06:54:05;11.87;;;8.30;;
3755;SDS011;1893;52.526;13.360;2024-01-30T06:56:31;14.60;;;7.97;;
3755;SDS011;1893;52.526;13.360;2024-01-30T06:58:57;17.93;;;7.90;;
3755;SDS011;1893;52.526;13.360;2024-01-30T07:01:27;21.53;;;9.23;;
3755;SDS011;1893;52.526;13.360;2024-01-30T07:03:54;16.90;;;8.27;;
3755;SDS011;1893;52.526;13.360;2024-01-30T07:06:20;16.50;;;7.90;;
3755;SDS011;1893;52.526;13.360;2024-01-30T07:08:45;16.40;;;8.43;;
3755;SDS011;1893;52.526;13.360;2024-01-30T07:11:17;14.47;;;8.10;;
3755;SDS011;1893;52.526;13.360;2024-01-30T07:13:44;11.00;;;7.47;;
3755;SDS011;1893;52.526;13.360;2024-01-30T07:16:09;11.40;;;7.80;;
3755;SDS011;1893;52.526;13.360;2024-01-30T07:18:35;14.27;;;8.10;;
3755;SDS011;1893;52.526;13.360;2024-01-30T07:21:00;11.03;;;6.87;;
3755;SDS011;1893;52.526;13.360;2024-01-30T07:23:26;13.30;;;6.83;;
3755;SDS011;1893;52.526;13.360;2024-01-30T07:25:52;18.10;;;9.20;;
3755;SDS011;1893;52.526;13.360;2024-01-30T07:28:17;14.53;;;8.83;;
3755;SDS011;1893;52.526;13.360;2024-01-30T07:30:43;17.20;;;9.13;;
3755;SDS011;1893;52.526;13.360;2024-01-30T07:33:09;14.87;;;8.47;;
3755;SDS011;1893;52.526;13.360;2024-01-30T07:35:34;17.53;;;8.93;;
3755;SDS011;1893;52.526;13.360;2024-01-30T07:38:01;16.13;;;8.47;;
3755;SDS011;1893;52.526;13.360;2024-01-30T07:40:26;16.50;;;8.37;;
3755;SDS011;1893;52.526;13.360;2024-01-30T07:42:53;13.97;;;8.83;;
3755;SDS011;1893;52.526;13.360;2024-01-30T07:45:19;12.87;;;7.53;;
3755;SDS011;1893;52.526;13.360;2024-01-30T07:47:49;14.60;;;7.90;;
3755;SDS011;1893;52.526;13.360;2024-01-30T07:50:15;13.60;;;7.50;;
3755;SDS011;1893;52.526;13.360;2024-01-30T07:52:41;18.43;;;9.73;;
3755;SDS011;1893;52.526;13.360;2024-01-30T07:55:07;12.23;;;7.30;;
3755;SDS011;1893;52.526;13.360;2024-01-30T07:57:33;11.70;;;8.33;;
3755;SDS011;1893;52.526;13.360;2024-01-30T07:59:59;15.80;;;8.87;;
3755;SDS011;1893;52.526;13.360;2024-01-30T08:02:28;13.73;;;8.17;;
3755;SDS011;1893;52.526;13.360;2024-01-30T08:04:53;12.83;;;7.53;;
3755;SDS011;1893;52.526;13.360;2024-01-30T08:07:19;14.20;;;8.83;;
3755;SDS011;1893;52.526;13.360;2024-01-30T08:09:47;12.07;;;8.27;;
3755;SDS011;1893;52.526;13.360;2024-01-30T08:12:12;20.43;;;8.80;;
3755;SDS011;1893;52.526;13.360;2024-01-30T08:14:38;15.27;;;9.10;;
3755;SDS011;1893;52.526;13.360;2024-01-30T08:17:04;18.87;;;9.13;;
3755;SDS011;1893;52.526;13.360;2024-01-30T08:19:32;16.90;;;9.77;;
3755;SDS011;1893;52.526;13.360;2024-01-30T08:21:58;18.30;;;9.50;;
3755;SDS011;1893;52.526;13.360;2024-01-30T08:24:23;15.87;;;9.20;;
3755;SDS011;1893;52.526;13.360;2024-01-30T08:26:49;19.67;;;9.20;;
3755;SDS011;1893;52.526;13.360;2024-01-30T08:29:15;14.67;;;8.53;;
3755;SDS011;1893;52.526;13.360;2024-01-30T08:31:40;17.33;;;9.07;;
3755;SDS011;1893;52.526;13.360;2024-01-30T08:34:06;15.50;;;8.60;;
3755;SDS011;1893;52.526;13.360;2024-01-30T08:36:31;18.17;;;9.93;;
3755;SDS011;1893;52.526;13.360;2024-01-30T08:38:57;19.03;;;9.53;;
3755;SDS011;1893;52.526;13.360;2024-01-30T08:41:23;15.57;;;8.87;;
3755;SDS011;1893;52.526;13.360;2024-01-30T08:43:49;16.07;;;10.47;;
3755;SDS011;1893;52.526;13.360;2024-01-30T08:46:17;11.70;;;8.60;;
3755;SDS011;1893;52.526;13.360;2024-01-30T08:48:46;14.13;;;7.93;;
3755;SDS011;1893;52.526;13.360;2024-01-30T08:51:12;15.73;;;9.03;;
3755;SDS011;1893;52.526;13.360;2024-01-30T08:53:39;12.57;;;8.30;;
3755;SDS011;1893;52.526;13.360;2024-01-30T08:56:05;14.63;;;9.00;;
3755;SDS011;1893;52.526;13.360;2024-01-30T08:58:31;16.93;;;7.93;;
3755;SDS011;1893;52.526;13.360;2024-01-30T09:00:58;14.23;;;8.50;;
3755;SDS011;1893;52.526;13.360;2024-01-30T09:03:24;13.63;;;9.37;;
3755;SDS011;1893;52.526;13.360;2024-01-30T09:05:49;12.00;;;8.17;;
3755;SDS011;1893;52.526;13.360;2024-01-30T09:08:15;17.10;;;8.70;;
3755;SDS011;1893;52.526;13.360;2024-01-30T09:10:41;18.80;;;9.23;;
3755;SDS011;1893;52.526;13.360;2024-01-30T09:13:06;14.27;;;8.97;;
3755;SDS011;1893;52.526;13.360;2024-01-30T09:15:32;14.23;;;8.70;;
3755;SDS011;1893;52.526;13.360;2024-01-30T09:17:57;11.30;;;7.80;;
3755;SDS011;1893;52.526;13.360;2024-01-30T09:20:23;15.50;;;8.50;;
3755;SDS011;1893;52.526;13.360;2024-01-30T09:22:49;14.60;;;7.77;;
3755;SDS011;1893;52.526;13.360;2024-01-30T09:25:15;10.53;;;6.73;;
3755;SDS011;1893;52.526;13.360;2024-01-30T09:27:40;15.20;;;7.57;;
3755;SDS011;1893;52.526;13.360;2024-01-30T09:30:06;17.07;;;9.07;;
3755;SDS011;1893;52.526;13.360;2024-01-30T09:32:32;10.30;;;7.03;;
3755;SDS011;1893;52.526;13.360;2024-01-30T09:34:58;14.00;;;7.23;;
3755;SDS011;1893;52.526;13.360;2024-01-30T09:37:26;9.77;;;6.60;;
3755;SDS011;1893;52.526;13.360;2024-01-30T09:39:52;11.13;;;7.80;;
3755;SDS011;1893;52.526;13.360;2024-01-30T09:42:20;12.03;;;7.93;;
3755;SDS011;1893;52.526;13.360;2024-01-30T09:44:51;13.80;;;8.13;;
3755;SDS011;1893;52.526;13.360;2024-01-30T09:47:18;12.80;;;7.20;;
3755;SDS011;1893;52.526;13.360;2024-01-30T09:49:44;11.50;;;7.60;;
3755;SDS011;1893;52.526;13.360;2024-01-30T09:52:10;9.60;;;6.97;;
3755;SDS011;1893;52.526;13.360;2024-01-30T09:54:36;13.80;;;8.70;;
3755;SDS011;1893;52.526;13.360;2024-01-30T09:57:03;13.10;;;8.13;;
3755;SDS011;1893;52.526;13.360;2024-01-30T09:59:29;14.20;;;8.20;;
3755;SDS011;1893;52.526;13.360;2024-01-30T10:01:55;12.93;;;8.00;;
3755;SDS011;1893;52.526;13.360;2024-01-30T10:04:22;12.90;;;8.10;;
3755;SDS011;1893;52.526;13.360;2024-01-30T10:06:47;12.37;;;7.03;;
3755;SDS011;1893;52.526;13.360;2024-01-30T10:09:13;9.80;;;6.90;;
3755;SDS011;1893;52.526;13.360;2024-01-30T10:11:39;12.63;;;8.60;;
3755;SDS011;1893;52.526;13.360;2024-01-30T10:14:05;11.93;;;7.37;;
3755;SDS011;1893;52.526;13.360;2024-01-30T10:16:30;13.77;;;7.37;;
3755;SDS011;1893;52.526;13.360;2024-01-30T10:18:56;15.20;;;7.17;;
3755;SDS011;1893;52.526;13.360;2024-01-30T10:21:21;11.50;;;7.10;;
3755;SDS011;1893;52.526;13.360;2024-01-30T10:23:47;10.37;;;7.63;;
3755;SDS011;1893;52.526;13.360;2024-01-30T10:26:15;9.50;;;6.80;;
3755;SDS011;1893;52.526;13.360;2024-01-30T10:28:42;12.47;;;7.20;;
3755;SDS011;1893;52.526;13.360;2024-01-30T10:31:08;12.23;;;7.50;;
3755;SDS011;1893;52.526;13.360;2024-01-30T10:33:33;13.50;;;7.10;;
3755;SDS011;1893;52.526;13.360;2024-01-30T10:36:08;9.20;;;6.03;;
3755;SDS011;1893;52.526;13.360;2024-01-30T10:38:35;10.20;;;6.83;;
3755;SDS011;1893;52.526;13.360;2024-01-30T10:41:03;12.97;;;7.10;;
3755;SDS011;1893;52.526;13.360;2024-01-30T10:43:31;13.43;;;7.27;;
3755;SDS011;1893;52.526;13.360;2024-01-30T10:46:01;9.57;;;6.40;;
3755;SDS011;1893;52.526;13.360;2024-01-30T10:48:37;12.03;;;6.87;;
3755;SDS011;1893;52.526;13.360;2024-01-30T10:51:09;9.73;;;6.73;;
3755;SDS011;1893;52.526;13.360;2024-01-30T10:53:36;13.60;;;6.63;;
3755;SDS011;1893;52.526;13.360;2024-01-30T10:56:02;10.47;;;7.03;;
3755;SDS011;1893;52.526;13.360;2024-01-30T10:58:29;9.63;;;7.37;;
3755;SDS011;1893;52.526;13.360;2024-01-30T11:00:55;9.17;;;6.40;;
3755;SDS011;1893;52.526;13.360;2024-01-30T11:03:21;11.20;;;7.23;;
3755;SDS011;1893;52.526;13.360;2024-01-30T11:05:51;9.00;;;6.10;;
3755;SDS011;1893;52.526;13.360;2024-01-30T11:08:23;10.23;;;7.23;;
3755;SDS011;1893;52.526;13.360;2024-01-30T11:10:54;11.43;;;7.90;;
3755;SDS011;1893;52.526;13.360;2024-01-30T11:13:21;10.20;;;6.40;;
3755;SDS011;1893;52.526;13.360;2024-01-30T11:15:47;10.37;;;6.50;;
3755;SDS011;1893;52.526;13.360;2024-01-30T11:18:22;9.77;;;6.97;;
3755;SDS011;1893;52.526;13.360;2024-01-30T11:20:51;8.87;;;5.93;;
3755;SDS011;1893;52.526;13.360;2024-01-30T11:23:17;10.57;;;7.70;;
3755;SDS011;1893;52.526;13.360;2024-01-30T11:25:43;10.83;;;7.43;;
3755;SDS011;1893;52.526;13.360;2024-01-30T11:28:13;12.37;;;7.40;;
3755;SDS011;1893;52.526;13.360;2024-01-30T11:30:43;17.53;;;6.90;;
3755;SDS011;1893;52.526;13.360;2024-01-30T11:33:10;10.87;;;8.30;;
3755;SDS011;1893;52.526;13.360;2024-01-30T11:35:38;8.67;;;6.97;;
3755;SDS011;1893;52.526;13.360;2024-01-30T11:38:05;11.43;;;6.60;;
3755;SDS011;1893;52.526;13.360;2024-01-30T11:40:31;12.27;;;7.63;;
3755;SDS011;1893;52.526;13.360;2024-01-30T11:42:58;10.27;;;6.80;;
3755;SDS011;1893;52.526;13.360;2024-01-30T11:45:28;9.30;;;6.60;;
3755;SDS011;1893;52.526;13.360;2024-01-30T11:47:54;10.10;;;7.00;;
3755;SDS011;1893;52.526;13.360;2024-01-30T11:50:20;11.60;;;7.30;;
3755;SDS011;1893;52.526;13.360;2024-01-30T11:52:46;15.30;;;7.50;;
3755;SDS011;1893;52.526;13.360;2024-01-30T11:55:13;11.63;;;7.07;;
3755;SDS011;1893;52.526;13.360;2024-01-30T11:57:40;12.13;;;6.60;;
3755;SDS011;1893;52.526;13.360;2024-01-30T12:00:06;11.83;;;6.93;;
3755;SDS011;1893;52.526;13.360;2024-01-30T12:02:39;10.77;;;7.30;;
3755;SDS011;1893;52.526;13.360;2024-01-30T12:05:05;14.93;;;7.80;;
3755;SDS011;1893;52.526;13.360;2024-01-30T12:07:32;9.20;;;7.13;;
3755;SDS011;1893;52.526;13.360;2024-01-30T12:09:58;13.17;;;7.50;;
3755;SDS011;1893;52.526;13.360;2024-01-30T12:12:25;16.17;;;7.87;;
3755;SDS011;1893;52.526;13.360;2024-01-30T12:14:51;9.30;;;7.23;;
3755;SDS011;1893;52.526;13.360;2024-01-30T12:17:30;10.43;;;7.00;;
3755;SDS011;1893;52.526;13.360;2024-01-30T12:20:07;12.03;;;7.70;;
3755;SDS011;1893;52.526;13.360;2024-01-30T12:22:51;14.33;;;7.80;;
3755;SDS011;1893;52.526;13.360;2024-01-30T12:25:18;10.00;;;6.67;;
3755;SDS011;1893;52.526;13.360;2024-01-30T12:27:52;12.87;;;7.40;;
3755;SDS011;1893;52.526;13.360;2024-01-30T12:30:18;11.40;;;7.50;;
3755;SDS011;1893;52.526;13.360;2024-01-30T12:32:45;9.33;;;6.87;;
3755;SDS011;1893;52.526;13.360;2024-01-30T12:35:14;11.03;;;7.13;;
3755;SDS011;1893;52.526;13.360;2024-01-30T12:37:42;11.40;;;7.87;;
3755;SDS011;1893;52.526;13.360;2024-01-30T12:40:09;12.30;;;7.60;;
3755;SDS011;1893;52.526;13.360;2024-01-30T12:42:45;12.33;;;6.83;;
3755;SDS011;1893;52.526;13.360;2024-01-30T12:45:14;9.07;;;7.20;;
3755;SDS011;1893;52.526;13.360;2024-01-30T12:47:40;11.07;;;7.17;;
3755;SDS011;1893;52.526;13.360;2024-01-30T12:50:07;13.87;;;7.57;;
3755;SDS011;1893;52.526;13.360;2024-01-30T12:52:32;11.50;;;7.40;;
3755;SDS011;1893;52.526;13.360;2024-01-30T12:54:58;11.10;;;7.30;;
3755;SDS011;1893;52.526;13.360;2024-01-30T12:57:24;11.30;;;7.87;;
3755;SDS011;1893;52.526;13.360;2024-01-30T12:59:49;16.80;;;9.00;;
3755;SDS011;1893;52.526;13.360;2024-01-30T13:02:15;10.40;;;8.07;;
3755;SDS011;1893;52.526;13.360;2024-01-30T13:04:41;11.83;;;6.93;;
3755;SDS011;1893;52.526;13.360;2024-01-30T13:07:08;13.80;;;8.10;;
3755;SDS011;1893;52.526;13.360;2024-01-30T13:09:33;13.87;;;9.90;;
3755;SDS011;1893;52.526;13.360;2024-01-30T13:11:59;11.70;;;8.53;;
3755;SDS011;1893;52.526;13.360;2024-01-30T13:14:25;9.63;;;7.77;;
3755;SDS011;1893;52.526;13.360;2024-01-30T13:16:51;10.87;;;7.60;;
3755;SDS011;1893;52.526;13.360;2024-01-30T13:19:17;12.33;;;7.47;;
3755;SDS011;1893;52.526;13.360;2024-01-30T13:21:42;13.60;;;8.80;;
3755;SDS011;1893;52.526;13.360;2024-01-30T13:24:08;15.97;;;8.67;;
3755;SDS011;1893;52.526;13.360;2024-01-30T13:26:34;15.70;;;7.43;;
3755;SDS011;1893;52.526;13.360;2024-01-30T13:29:00;12.83;;;7.63;;
3755;SDS011;1893;52.526;13.360;2024-01-30T13:31:26;11.43;;;7.80;;
3755;SDS011;1893;52.526;13.360;2024-01-30T13:33:52;13.70;;;8.83;;
3755;SDS011;1893;52.526;13.360;2024-01-30T13:36:18;11.77;;;7.77;;
3755;SDS011;1893;52.526;13.360;2024-01-30T13:38:44;9.03;;;6.70;;
3755;SDS011;1893;52.526;13.360;2024-01-30T13:41:10;15.33;;;8.07;;
3755;SDS011;1893;52.526;13.360;2024-01-30T13:43:36;11.30;;;7.17;;
3755;SDS011;1893;52.526;13.360;2024-01-30T13:46:01;17.30;;;8.53;;
3755;SDS011;1893;52.526;13.360;2024-01-30T13:48:28;14.57;;;7.87;;
3755;SDS011;1893;52.526;13.360;2024-01-30T13:50:54;11.20;;;7.73;;
3755;SDS011;1893;52.526;13.360;2024-01-30T13:53:20;9.20;;;6.80;;
3755;SDS011;1893;52.526;13.360;2024-01-30T13:55:46;12.63;;;6.90;;
3755;SDS011;1893;52.526;13.360;2024-01-30T13:58:12;13.23;;;7.80;;
3755;SDS011;1893;52.526;13.360;2024-01-30T14:00:37;13.60;;;8.23;;
3755;SDS011;1893;52.526;13.360;2024-01-30T14:03:03;15.13;;;8.00;;
3755;SDS011;1893;52.526;13.360;2024-01-30T14:05:29;13.50;;;7.33;;
3755;SDS011;1893;52.526;13.360;2024-01-30T14:07:55;10.23;;;7.17;;
3755;SDS011;1893;52.526;13.360;2024-01-30T14:10:23;10.70;;;6.93;;
3755;SDS011;1893;52.526;13.360;2024-01-30T14:12:49;10.10;;;7.93;;
3755;SDS011;1893;52.526;13.360;2024-01-30T14:15:14;22.07;;;8.47;;
3755;SDS011;1893;52.526;13.360;2024-01-30T14:17:42;13.67;;;7.67;;
3755;SDS011;1893;52.526;13.360;2024-01-30T14:20:08;14.40;;;7.23;;
3755;SDS011;1893;52.526;13.360;2024-01-30T14:22:35;16.90;;;8.63;;
3755;SDS011;1893;52.526;13.360;2024-01-30T14:25:01;16.17;;;7.60;;
3755;SDS011;1893;52.526;13.360;2024-01-30T14:27:28;11.80;;;7.77;;
3755;SDS011;1893;52.526;13.360;2024-01-30T14:29:55;14.23;;;8.27;;
3755;SDS011;1893;52.526;13.360;2024-01-30T14:32:21;13.27;;;7.60;;
3755;SDS011;1893;52.526;13.360;2024-01-30T14:34:48;14.57;;;7.90;;
3755;SDS011;1893;52.526;13.360;2024-01-30T14:37:14;15.37;;;7.83;;
3755;SDS011;1893;52.526;13.360;2024-01-30T14:39:40;10.37;;;6.90;;
3755;SDS011;1893;52.526;13.360;2024-01-30T14:42:06;10.70;;;7.27;;
3755;SDS011;1893;52.526;13.360;2024-01-30T14:44:32;12.30;;;8.40;;
3755;SDS011;1893;52.526;13.360;2024-01-30T14:46:58;13.70;;;7.50;;
3755;SDS011;1893;52.526;13.360;2024-01-30T14:49:24;10.97;;;7.63;;